sensor_id;sensor_type;location;lat;lon;timestamp;pressure;altitude;pressure_sealevel;temperature;humidity
4981;BME280;2507;50.392;7.482;2023-06-14T00:02:03;100417.75;;;18.16;50.11
4981;BME280;2507;50.392;7.482;2023-06-14T00:04:29;100416.06;;;18.07;50.41
4981;BME280;2507;50.392;7.482;2023-06-14T00:06:55;100417.88;;;17.73;51.52
4981;BME280;2507;50.392;7.482;2023-06-14T00:09:22;100419.72;;;17.47;52.27
4981;BME280;2507;50.392;7.482;2023-06-14T00:11:47;100415.66;;;17.60;51.82
4981;BME280;2507;50.392;7.482;2023-06-14T00:14:12;100422.31;;;17.64;52.10
4981;BME280;2507;50.392;7.482;2023-06-14T00:16:39;100420.59;;;17.47;52.58
4981;BME280;2507;50.392;7.482;2023-06-14T00:19:08;100411.69;;;17.38;53.07
4981;BME280;2507;50.392;7.482;2023-06-14T00:21:33;100415.53;;;17.44;52.49
4981;BME280;2507;50.392;7.482;2023-06-14T00:24:00;100431.06;;;17.57;51.91
4981;BME280;2507;50.392;7.482;2023-06-14T00:26:26;100421.13;;;17.59;52.34
4981;BME280;2507;50.392;7.482;2023-06-14T00:28:52;100434.88;;;17.80;51.61
4981;BME280;2507;50.392;7.482;2023-06-14T00:31:17;100436.78;;;17.70;52.00
4981;BME280;2507;50.392;7.482;2023-06-14T00:33:42;100434.41;;;17.59;52.13
4981;BME280;2507;50.392;7.482;2023-06-14T00:36:08;100426.25;;;17.52;52.08
4981;BME280;2507;50.392;7.482;2023-06-14T00:38:33;100441.31;;;17.52;52.36
4981;BME280;2507;50.392;7.482;2023-06-14T00:40:59;100428.22;;;17.50;53.07
4981;BME280;2507;50.392;7.482;2023-06-14T00:43:25;100432.41;;;17.35;53.60
4981;BME280;2507;50.392;7.482;2023-06-14T00:45:50;100441.81;;;17.29;54.42
4981;BME280;2507;50.392;7.482;2023-06-14T00:48:16;100448.97;;;17.11;54.68
4981;BME280;2507;50.392;7.482;2023-06-14T00:50:43;100444.09;;;16.81;54.72
4981;BME280;2507;50.392;7.482;2023-06-14T00:53:11;100450.97;;;16.92;54.68
4981;BME280;2507;50.392;7.482;2023-06-14T00:55:37;100446.63;;;17.08;54.12
4981;BME280;2507;50.392;7.482;2023-06-14T00:58:02;100448.16;;;16.93;54.40
4981;BME280;2507;50.392;7.482;2023-06-14T01:00:28;100445.47;;;16.85;54.64
4981;BME280;2507;50.392;7.482;2023-06-14T01:02:53;100437.88;;;16.90;54.24
4981;BME280;2507;50.392;7.482;2023-06-14T01:05:19;100437.88;;;16.90;54.28
4981;BME280;2507;50.392;7.482;2023-06-14T01:13:34;100441.72;;;16.96;54.25
4981;BME280;2507;50.392;7.482;2023-06-14T01:16:01;100442.03;;;16.58;55.41
4981;BME280;2507;50.392;7.482;2023-06-14T01:18:28;100453.41;;;16.41;55.88
4981;BME280;2507;50.392;7.482;2023-06-14T01:20:54;100448.31;;;16.57;55.61
4981;BME280;2507;50.392;7.482;2023-06-14T01:23:22;100457.78;;;16.77;55.00
4981;BME280;2507;50.392;7.482;2023-06-14T01:25:49;100446.66;;;16.56;55.37
4981;BME280;2507;50.392;7.482;2023-06-14T01:28:18;100460.06;;;16.54;55.46
4981;BME280;2507;50.392;7.482;2023-06-14T01:30:46;100448.31;;;16.57;55.58
4981;BME280;2507;50.392;7.482;2023-06-14T01:33:13;100457.69;;;16.51;55.52
4981;BME280;2507;50.392;7.482;2023-06-14T01:35:41;100461.41;;;16.58;55.35
4981;BME280;2507;50.392;7.482;2023-06-14T01:38:07;100471.72;;;16.61;55.36
4981;BME280;2507;50.392;7.482;2023-06-14T01:40:34;100462.28;;;16.76;55.00
4981;BME280;2507;50.392;7.482;2023-06-14T01:43:00;100450.97;;;16.92;54.45
4981;BME280;2507;50.392;7.482;2023-06-14T01:45:27;100459.38;;;16.87;54.50
4981;BME280;2507;50.392;7.482;2023-06-14T01:47:52;100457.78;;;16.59;55.11
4981;BME280;2507;50.392;7.482;2023-06-14T01:50:19;100461.81;;;16.36;55.87
4981;BME280;2507;50.392;7.482;2023-06-14T01:52:45;100466.66;;;16.41;55.96
4981;BME280;2507;50.392;7.482;2023-06-14T01:55:10;100467.88;;;16.46;55.84
4981;BME280;2507;50.392;7.482;2023-06-14T01:57:36;100459.72;;;16.40;56.29
4981;BME280;2507;50.392;7.482;2023-06-14T02:00:01;100464.47;;;16.36;56.63
4981;BME280;2507;50.392;7.482;2023-06-14T02:02:28;100456.06;;;16.41;56.49
4981;BME280;2507;50.392;7.482;2023-06-14T02:04:53;100456.88;;;16.68;55.90
4981;BME280;2507;50.392;7.482;2023-06-14T02:07:22;100455.06;;;16.69;55.46
4981;BME280;2507;50.392;7.482;2023-06-14T02:09:48;100459.44;;;16.60;55.65
4981;BME280;2507;50.392;7.482;2023-06-14T02:12:13;100466.47;;;16.69;55.43
4981;BME280;2507;50.392;7.482;2023-06-14T02:14:39;100463.47;;;16.64;54.95
4981;BME280;2507;50.392;7.482;2023-06-14T02:17:04;100470.84;;;16.43;55.64
4981;BME280;2507;50.392;7.482;2023-06-14T02:19:31;100458.34;;;16.35;56.23
4981;BME280;2507;50.392;7.482;2023-06-14T02:21:56;100466.44;;;16.34;56.55
4981;BME280;2507;50.392;7.482;2023-06-14T02:24:22;100465.81;;;16.40;56.43
4981;BME280;2507;50.392;7.482;2023-06-14T02:26:48;100462.88;;;16.43;56.51
4981;BME280;2507;50.392;7.482;2023-06-14T02:29:14;100469.50;;;16.57;55.88
4981;BME280;2507;50.392;7.482;2023-06-14T02:31:40;100455.34;;;16.48;56.31
4981;BME280;2507;50.392;7.482;2023-06-14T02:34:05;100469.81;;;16.71;55.62
4981;BME280;2507;50.392;7.482;2023-06-14T02:36:30;100468.06;;;16.62;55.11
4981;BME280;2507;50.392;7.482;2023-06-14T02:38:56;100472.94;;;16.40;56.50
4981;BME280;2507;50.392;7.482;2023-06-14T02:41:25;100482.31;;;16.34;56.33
4981;BME280;2507;50.392;7.482;2023-06-14T02:43:51;100471.41;;;16.37;56.37
4981;BME280;2507;50.392;7.482;2023-06-14T02:46:16;100474.59;;;16.41;56.02
4981;BME280;2507;50.392;7.482;2023-06-14T02:48:41;100480.19;;;16.47;55.50
4981;BME280;2507;50.392;7.482;2023-06-14T02:51:06;100477.09;;;16.42;55.57
4981;BME280;2507;50.392;7.482;2023-06-14T02:53:33;100476.19;;;16.33;55.55
4981;BME280;2507;50.392;7.482;2023-06-14T02:55:58;100472.63;;;16.25;55.99
4981;BME280;2507;50.392;7.482;2023-06-14T02:58:24;100469.97;;;16.25;56.17
4981;BME280;2507;50.392;7.482;2023-06-14T03:00:50;100478.44;;;16.28;56.07
4981;BME280;2507;50.392;7.482;2023-06-14T03:03:17;100483.41;;;16.14;56.90
4981;BME280;2507;50.392;7.482;2023-06-14T03:05:44;100478.00;;;16.06;57.06
4981;BME280;2507;50.392;7.482;2023-06-14T03:08:13;100482.75;;;16.02;57.39
4981;BME280;2507;50.392;7.482;2023-06-14T03:10:48;100479.03;;;15.95;57.76
4981;BME280;2507;50.392;7.482;2023-06-14T03:13:14;100478.78;;;15.89;57.71
4981;BME280;2507;50.392;7.482;2023-06-14T03:15:41;100491.66;;;15.65;58.57
4981;BME280;2507;50.392;7.482;2023-06-14T03:18:10;100495.56;;;15.70;58.46
4981;BME280;2507;50.392;7.482;2023-06-14T03:20:37;100493.22;;;15.67;58.21
4981;BME280;2507;50.392;7.482;2023-06-14T03:23:02;100504.06;;;15.64;58.40
4981;BME280;2507;50.392;7.482;2023-06-14T03:25:28;100509.78;;;15.60;58.87
4981;BME280;2507;50.392;7.482;2023-06-14T03:27:55;100511.81;;;15.75;58.26
4981;BME280;2507;50.392;7.482;2023-06-14T03:30:20;100513.94;;;15.72;58.29
4981;BME280;2507;50.392;7.482;2023-06-14T03:32:46;100513.06;;;15.81;58.09
4981;BME280;2507;50.392;7.482;2023-06-14T03:35:11;100517.97;;;15.76;58.32
4981;BME280;2507;50.392;7.482;2023-06-14T03:37:45;100531.41;;;15.92;58.18
4981;BME280;2507;50.392;7.482;2023-06-14T03:40:12;100522.31;;;15.67;58.90
4981;BME280;2507;50.392;7.482;2023-06-14T03:42:37;100533.84;;;15.66;58.82
4981;BME280;2507;50.392;7.482;2023-06-14T03:45:03;100530.25;;;15.58;59.24
4981;BME280;2507;50.392;7.482;2023-06-14T03:47:29;100541.25;;;15.63;59.29
4981;BME280;2507;50.392;7.482;2023-06-14T03:49:54;100538.84;;;15.79;58.78
4981;BME280;2507;50.392;7.482;2023-06-14T03:52:20;100541.31;;;15.90;58.28
4981;BME280;2507;50.392;7.482;2023-06-14T03:54:46;100528.91;;;16.00;57.84
4981;BME280;2507;50.392;7.482;2023-06-14T03:57:11;100536.44;;;16.22;56.96
4981;BME280;2507;50.392;7.482;2023-06-14T03:59:36;100546.44;;;16.38;56.77
4981;BME280;2507;50.392;7.482;2023-06-14T04:02:02;100554.66;;;16.34;57.16
4981;BME280;2507;50.392;7.482;2023-06-14T04:04:27;100542.84;;;16.29;57.27
4981;BME280;2507;50.392;7.482;2023-06-14T04:06:55;100559.09;;;16.44;56.90
4981;BME280;2507;50.392;7.482;2023-06-14T04:09:22;100548.00;;;16.30;57.27
4981;BME280;2507;50.392;7.482;2023-06-14T04:11:50;100563.31;;;16.00;58.05
4981;BME280;2507;50.392;7.482;2023-06-14T04:14:15;100559.69;;;15.91;58.27
4981;BME280;2507;50.392;7.482;2023-06-14T04:16:40;100561.06;;;16.05;58.30
4981;BME280;2507;50.392;7.482;2023-06-14T04:19:05;100562.16;;;16.39;57.07
4981;BME280;2507;50.392;7.482;2023-06-14T04:21:31;100566.75;;;16.74;56.42
4981;BME280;2507;50.392;7.482;2023-06-14T04:23:56;100565.13;;;17.61;54.31
4981;BME280;2507;50.392;7.482;2023-06-14T04:26:22;100561.50;;;18.88;51.43
4981;BME280;2507;50.392;7.482;2023-06-14T04:28:49;100566.31;;;20.13;48.31
4981;BME280;2507;50.392;7.482;2023-06-14T04:31:15;100567.09;;;21.38;45.45
4981;BME280;2507;50.392;7.482;2023-06-14T04:33:41;100567.81;;;22.50;42.36
4981;BME280;2507;50.392;7.482;2023-06-14T04:36:12;100559.72;;;23.15;41.14
4981;BME280;2507;50.392;7.482;2023-06-14T04:38:38;100575.44;;;24.43;39.07
4981;BME280;2507;50.392;7.482;2023-06-14T04:41:04;100577.44;;;25.36;35.97
4981;BME280;2507;50.392;7.482;2023-06-14T04:43:29;100565.09;;;25.54;35.67
4981;BME280;2507;50.392;7.482;2023-06-14T04:45:55;100573.16;;;26.06;35.26
4981;BME280;2507;50.392;7.482;2023-06-14T04:48:22;100571.09;;;26.66;34.58
4981;BME280;2507;50.392;7.482;2023-06-14T04:50:47;100584.56;;;27.54;32.95
4981;BME280;2507;50.392;7.482;2023-06-14T04:53:13;100592.34;;;28.18;31.70
4981;BME280;2507;50.392;7.482;2023-06-14T04:55:38;100585.09;;;29.02;30.90
4981;BME280;2507;50.392;7.482;2023-06-14T04:58:03;100574.31;;;29.85;29.59
4981;BME280;2507;50.392;7.482;2023-06-14T05:00:30;100590.19;;;30.51;29.19
4981;BME280;2507;50.392;7.482;2023-06-14T05:02:55;100580.59;;;31.28;27.62
4981;BME280;2507;50.392;7.482;2023-06-14T05:05:22;100576.34;;;31.32;28.01
4981;BME280;2507;50.392;7.482;2023-06-14T05:07:47;100583.66;;;31.76;27.47
4981;BME280;2507;50.392;7.482;2023-06-14T05:10:12;100582.78;;;32.42;26.84
4981;BME280;2507;50.392;7.482;2023-06-14T05:12:38;100587.72;;;32.66;27.66
4981;BME280;2507;50.392;7.482;2023-06-14T05:15:03;100584.72;;;32.89;26.07
4981;BME280;2507;50.392;7.482;2023-06-14T05:17:29;100591.03;;;33.43;25.54
4981;BME280;2507;50.392;7.482;2023-06-14T05:19:55;100587.16;;;33.34;25.41
4981;BME280;2507;50.392;7.482;2023-06-14T05:22:21;100593.06;;;34.21;25.28
4981;BME280;2507;50.392;7.482;2023-06-14T05:24:46;100592.06;;;34.94;24.46
4981;BME280;2507;50.392;7.482;2023-06-14T05:27:13;100588.34;;;34.53;24.41
4981;BME280;2507;50.392;7.482;2023-06-14T05:29:38;100606.06;;;34.51;24.29
4981;BME280;2507;50.392;7.482;2023-06-14T05:32:04;100597.03;;;34.45;23.61
4981;BME280;2507;50.392;7.482;2023-06-14T05:34:29;100587.31;;;34.18;24.00
4981;BME280;2507;50.392;7.482;2023-06-14T05:36:54;100599.63;;;33.30;24.21
4981;BME280;2507;50.392;7.482;2023-06-14T05:39:20;100594.34;;;34.09;24.46
4981;BME280;2507;50.392;7.482;2023-06-14T05:41:45;100592.63;;;33.97;24.16
4981;BME280;2507;50.392;7.482;2023-06-14T05:44:11;100591.47;;;33.93;24.10
4981;BME280;2507;50.392;7.482;2023-06-14T05:46:36;100602.06;;;34.68;23.05
4981;BME280;2507;50.392;7.482;2023-06-14T05:49:01;100604.41;;;35.12;22.99
4981;BME280;2507;50.392;7.482;2023-06-14T05:51:27;100601.16;;;35.20;22.50
4981;BME280;2507;50.392;7.482;2023-06-14T05:53:52;100605.34;;;35.98;22.29
4981;BME280;2507;50.392;7.482;2023-06-14T05:56:18;100606.69;;;35.95;22.15
4981;BME280;2507;50.392;7.482;2023-06-14T05:58:44;100606.75;;;36.79;21.49
4981;BME280;2507;50.392;7.482;2023-06-14T06:01:09;100611.75;;;36.67;21.43
4981;BME280;2507;50.392;7.482;2023-06-14T06:03:35;100605.59;;;35.81;22.08
4981;BME280;2507;50.392;7.482;2023-06-14T06:06:01;100608.31;;;36.36;21.25
4981;BME280;2507;50.392;7.482;2023-06-14T06:08:27;100609.41;;;35.55;22.25
4981;BME280;2507;50.392;7.482;2023-06-14T06:10:52;100604.00;;;34.73;22.96
4981;BME280;2507;50.392;7.482;2023-06-14T06:13:17;100601.78;;;34.70;23.27
4981;BME280;2507;50.392;7.482;2023-06-14T06:15:43;100607.69;;;35.14;22.39
4981;BME280;2507;50.392;7.482;2023-06-14T06:18:08;100612.97;;;36.01;21.78
4981;BME280;2507;50.392;7.482;2023-06-14T06:20:33;100622.41;;;37.32;20.17
4981;BME280;2507;50.392;7.482;2023-06-14T06:22:59;100620.59;;;38.24;19.45
4981;BME280;2507;50.392;7.482;2023-06-14T06:25:25;100621.50;;;39.09;19.17
4981;BME280;2507;50.392;7.482;2023-06-14T06:27:52;100615.91;;;38.71;19.53
4981;BME280;2507;50.392;7.482;2023-06-14T06:30:18;100623.34;;;39.32;19.22
4981;BME280;2507;50.392;7.482;2023-06-14T06:32:44;100621.88;;;37.30;20.02
4981;BME280;2507;50.392;7.482;2023-06-14T06:35:09;100630.94;;;36.62;20.77
4981;BME280;2507;50.392;7.482;2023-06-14T06:37:36;100632.78;;;36.71;20.21
4981;BME280;2507;50.392;7.482;2023-06-14T06:40:02;100629.06;;;36.37;20.48
4981;BME280;2507;50.392;7.482;2023-06-14T06:42:29;100636.91;;;37.28;20.50
4981;BME280;2507;50.392;7.482;2023-06-14T06:44:54;100633.94;;;38.02;19.75
4981;BME280;2507;50.392;7.482;2023-06-14T06:47:19;100639.53;;;38.15;19.56
4981;BME280;2507;50.392;7.482;2023-06-14T06:49:45;100637.50;;;38.02;19.72
4981;BME280;2507;50.392;7.482;2023-06-14T06:52:10;100627.38;;;36.51;20.95
4981;BME280;2507;50.392;7.482;2023-06-14T06:54:35;100631.81;;;34.28;22.60
4981;BME280;2507;50.392;7.482;2023-06-14T06:57:01;100641.03;;;33.59;23.11
4981;BME280;2507;50.392;7.482;2023-06-14T06:59:26;100635.81;;;33.84;22.60
4981;BME280;2507;50.392;7.482;2023-06-14T07:01:52;100634.03;;;34.88;22.28
4981;BME280;2507;50.392;7.482;2023-06-14T07:04:17;100640.59;;;36.09;21.09
4981;BME280;2507;50.392;7.482;2023-06-14T07:06:43;100634.16;;;36.74;20.50
4981;BME280;2507;50.392;7.482;2023-06-14T07:09:09;100635.13;;;36.04;20.58
4981;BME280;2507;50.392;7.482;2023-06-14T07:11:38;100637.84;;;35.74;21.07
4981;BME280;2507;50.392;7.482;2023-06-14T07:14:04;100642.03;;;35.00;21.14
4981;BME280;2507;50.392;7.482;2023-06-14T07:16:29;100638.34;;;34.27;21.39
4981;BME280;2507;50.392;7.482;2023-06-14T07:18:55;100644.91;;;34.31;21.57
4981;BME280;2507;50.392;7.482;2023-06-14T07:21:20;100641.25;;;33.84;21.63
4981;BME280;2507;50.392;7.482;2023-06-14T07:23:45;100648.47;;;32.93;22.87
4981;BME280;2507;50.392;7.482;2023-06-14T07:26:11;100647.41;;;32.94;22.72
4981;BME280;2507;50.392;7.482;2023-06-14T07:28:36;100649.09;;;33.00;22.87
4981;BME280;2507;50.392;7.482;2023-06-14T07:31:01;100642.75;;;32.02;24.14
4981;BME280;2507;50.392;7.482;2023-06-14T07:33:27;100638.81;;;32.09;24.34
4981;BME280;2507;50.392;7.482;2023-06-14T07:35:53;100648.09;;;33.33;23.71
4981;BME280;2507;50.392;7.482;2023-06-14T07:38:18;100644.59;;;34.28;22.01
4981;BME280;2507;50.392;7.482;2023-06-14T07:40:43;100645.13;;;34.61;21.66
4981;BME280;2507;50.392;7.482;2023-06-14T07:43:08;100649.50;;;35.29;21.10
4981;BME280;2507;50.392;7.482;2023-06-14T07:45:34;100652.25;;;35.39;21.04
4981;BME280;2507;50.392;7.482;2023-06-14T07:47:59;100652.59;;;33.71;22.18
4981;BME280;2507;50.392;7.482;2023-06-14T07:50:24;100646.66;;;33.79;21.53
4981;BME280;2507;50.392;7.482;2023-06-14T07:52:50;100654.50;;;32.57;22.82
4981;BME280;2507;50.392;7.482;2023-06-14T07:55:15;100651.63;;;31.81;24.37
4981;BME280;2507;50.392;7.482;2023-06-14T07:57:41;100663.41;;;31.02;24.53
4981;BME280;2507;50.392;7.482;2023-06-14T08:00:08;100641.03;;;31.23;24.12
4981;BME280;2507;50.392;7.482;2023-06-14T08:02:36;100651.94;;;31.11;24.29
4981;BME280;2507;50.392;7.482;2023-06-14T08:05:01;100651.84;;;29.50;26.38
4981;BME280;2507;50.392;7.482;2023-06-14T08:07:27;100644.50;;;29.68;25.70
4981;BME280;2507;50.392;7.482;2023-06-14T08:09:52;100638.94;;;30.74;24.79
4981;BME280;2507;50.392;7.482;2023-06-14T08:12:17;100644.63;;;30.14;25.46
4981;BME280;2507;50.392;7.482;2023-06-14T08:14:42;100647.69;;;30.41;24.87
4981;BME280;2507;50.392;7.482;2023-06-14T08:17:08;100653.88;;;30.99;24.73
4981;BME280;2507;50.392;7.482;2023-06-14T08:19:33;100648.53;;;31.89;23.08
4981;BME280;2507;50.392;7.482;2023-06-14T08:21:59;100646.47;;;31.96;23.37
4981;BME280;2507;50.392;7.482;2023-06-14T08:24:25;100649.88;;;32.58;23.34
4981;BME280;2507;50.392;7.482;2023-06-14T08:26:52;100638.84;;;32.31;23.33
4981;BME280;2507;50.392;7.482;2023-06-14T08:29:18;100651.19;;;32.55;23.07
4981;BME280;2507;50.392;7.482;2023-06-14T08:31:43;100645.56;;;32.24;23.66
4981;BME280;2507;50.392;7.482;2023-06-14T08:34:08;100645.19;;;32.37;22.80
4981;BME280;2507;50.392;7.482;2023-06-14T08:36:35;100650.53;;;32.86;22.97
4981;BME280;2507;50.392;7.482;2023-06-14T08:39:01;100644.44;;;33.23;22.28
4981;BME280;2507;50.392;7.482;2023-06-14T08:41:28;100635.38;;;31.97;23.13
4981;BME280;2507;50.392;7.482;2023-06-14T08:43:55;100640.72;;;30.10;25.80
4981;BME280;2507;50.392;7.482;2023-06-14T08:46:20;100645.06;;;30.92;24.06
4981;BME280;2507;50.392;7.482;2023-06-14T08:48:49;100623.69;;;31.24;23.62
4981;BME280;2507;50.392;7.482;2023-06-14T08:51:18;100625.66;;;31.57;23.64
4981;BME280;2507;50.392;7.482;2023-06-14T08:53:44;100631.38;;;29.95;25.47
4981;BME280;2507;50.392;7.482;2023-06-14T08:56:10;100634.38;;;30.40;24.58
4981;BME280;2507;50.392;7.482;2023-06-14T08:58:44;100652.44;;;29.04;26.05
4981;BME280;2507;50.392;7.482;2023-06-14T09:01:13;100643.34;;;29.35;25.92
4981;BME280;2507;50.392;7.482;2023-06-14T09:03:43;100640.41;;;28.70;26.59
4981;BME280;2507;50.392;7.482;2023-06-14T09:06:09;100629.66;;;29.59;26.10
4981;BME280;2507;50.392;7.482;2023-06-14T09:08:41;100630.50;;;30.36;25.09
4981;BME280;2507;50.392;7.482;2023-06-14T09:11:08;100641.56;;;30.46;24.24
4981;BME280;2507;50.392;7.482;2023-06-14T09:13:34;100639.84;;;29.75;25.15
4981;BME280;2507;50.392;7.482;2023-06-14T09:16:00;100638.50;;;29.07;26.07
4981;BME280;2507;50.392;7.482;2023-06-14T09:18:55;100642.03;;;28.53;26.75
4981;BME280;2507;50.392;7.482;2023-06-14T09:21:20;100640.84;;;27.44;28.79
4981;BME280;2507;50.392;7.482;2023-06-14T09:23:47;100651.34;;;26.31;30.83
4981;BME280;2507;50.392;7.482;2023-06-14T09:26:15;100631.59;;;25.33;31.64
4981;BME280;2507;50.392;7.482;2023-06-14T09:28:45;100632.72;;;25.71;30.76
4981;BME280;2507;50.392;7.482;2023-06-14T09:31:15;100647.44;;;26.27;29.74
4981;BME280;2507;50.392;7.482;2023-06-14T09:33:50;100625.50;;;25.97;29.89
4981;BME280;2507;50.392;7.482;2023-06-14T09:36:18;100645.50;;;26.60;29.58
4981;BME280;2507;50.392;7.482;2023-06-14T09:38:58;100645.16;;;26.24;31.18
4981;BME280;2507;50.392;7.482;2023-06-14T09:41:37;100637.28;;;25.70;31.50
4981;BME280;2507;50.392;7.482;2023-06-14T09:44:05;100641.44;;;25.92;31.16
4981;BME280;2507;50.392;7.482;2023-06-14T09:46:32;100640.59;;;26.31;29.98
4981;BME280;2507;50.392;7.482;2023-06-14T09:48:58;100648.25;;;25.69;30.51
4981;BME280;2507;50.392;7.482;2023-06-14T09:51:25;100658.31;;;24.93;31.08
4981;BME280;2507;50.392;7.482;2023-06-14T09:53:51;100656.22;;;24.55;32.49
4981;BME280;2507;50.392;7.482;2023-06-14T09:56:38;100642.19;;;24.93;31.41
4981;BME280;2507;50.392;7.482;2023-06-14T09:59:06;100651.13;;;25.61;30.34
4981;BME280;2507;50.392;7.482;2023-06-14T10:01:35;100639.16;;;25.83;30.50
4981;BME280;2507;50.392;7.482;2023-06-14T10:04:04;100646.19;;;26.23;29.67
4981;BME280;2507;50.392;7.482;2023-06-14T10:06:30;100636.44;;;26.35;29.62
4981;BME280;2507;50.392;7.482;2023-06-14T10:09:00;100638.94;;;26.04;29.41
4981;BME280;2507;50.392;7.482;2023-06-14T10:11:26;100644.75;;;26.20;30.26
4981;BME280;2507;50.392;7.482;2023-06-14T10:13:52;100642.25;;;26.45;29.29
4981;BME280;2507;50.392;7.482;2023-06-14T10:16:28;100639.31;;;26.73;28.57
4981;BME280;2507;50.392;7.482;2023-06-14T10:21:42;100631.41;;;26.71;29.26
4981;BME280;2507;50.392;7.482;2023-06-14T10:24:13;100634.38;;;26.44;29.99
4981;BME280;2507;50.392;7.482;2023-06-14T10:26:54;100634.63;;;26.16;31.51
4981;BME280;2507;50.392;7.482;2023-06-14T10:29:22;100632.50;;;25.66;31.23
4981;BME280;2507;50.392;7.482;2023-06-14T10:31:48;100635.59;;;25.69;32.35
4981;BME280;2507;50.392;7.482;2023-06-14T10:34:24;100624.03;;;25.95;30.83
4981;BME280;2507;50.392;7.482;2023-06-14T10:37:08;100637.88;;;26.31;31.71
4981;BME280;2507;50.392;7.482;2023-06-14T10:39:40;100647.16;;;26.55;30.10
4981;BME280;2507;50.392;7.482;2023-06-14T10:42:07;100665.59;;;26.58;32.33
4981;BME280;2507;50.392;7.482;2023-06-14T10:47:07;100650.53;;;25.85;32.29
4981;BME280;2507;50.392;7.482;2023-06-14T10:49:48;100638.50;;;25.87;32.10
4981;BME280;2507;50.392;7.482;2023-06-14T10:52:16;100638.09;;;26.30;30.68
4981;BME280;2507;50.392;7.482;2023-06-14T10:57:30;100649.91;;;26.35;30.54
4981;BME280;2507;50.392;7.482;2023-06-14T11:00:03;100650.09;;;26.40;30.62
4981;BME280;2507;50.392;7.482;2023-06-14T11:11:09;100642.25;;;26.25;31.39
4981;BME280;2507;50.392;7.482;2023-06-14T11:13:38;100641.00;;;26.41;30.62
4981;BME280;2507;50.392;7.482;2023-06-14T11:16:10;100645.16;;;26.44;32.01
4981;BME280;2507;50.392;7.482;2023-06-14T11:18:36;100640.59;;;26.24;31.10
4981;BME280;2507;50.392;7.482;2023-06-14T11:21:01;100640.56;;;26.44;30.55
4981;BME280;2507;50.392;7.482;2023-06-14T11:23:26;100640.78;;;26.30;30.76
4981;BME280;2507;50.392;7.482;2023-06-14T11:25:52;100645.75;;;25.67;31.48
4981;BME280;2507;50.392;7.482;2023-06-14T11:28:17;100642.66;;;25.90;30.75
4981;BME280;2507;50.392;7.482;2023-06-14T11:30:45;100667.47;;;25.72;30.63
4981;BME280;2507;50.392;7.482;2023-06-14T11:33:10;100653.38;;;25.51;31.34
4981;BME280;2507;50.392;7.482;2023-06-14T11:35:37;100668.34;;;25.25;32.44
4981;BME280;2507;50.392;7.482;2023-06-14T11:38:04;100648.31;;;25.28;32.84
4981;BME280;2507;50.392;7.482;2023-06-14T11:40:29;100646.97;;;25.52;31.46
4981;BME280;2507;50.392;7.482;2023-06-14T11:42:59;100652.97;;;25.60;31.75
4981;BME280;2507;50.392;7.482;2023-06-14T11:45:25;100645.72;;;25.61;31.53
4981;BME280;2507;50.392;7.482;2023-06-14T11:47:50;100673.00;;;25.45;32.26
4981;BME280;2507;50.392;7.482;2023-06-14T11:50:16;100664.13;;;25.51;31.96
4981;BME280;2507;50.392;7.482;2023-06-14T11:52:41;100655.66;;;25.60;31.09
4981;BME280;2507;50.392;7.482;2023-06-14T11:55:07;100655.25;;;25.50;32.26
4981;BME280;2507;50.392;7.482;2023-06-14T11:57:36;100651.97;;;25.81;31.59
4981;BME280;2507;50.392;7.482;2023-06-14T12:00:06;100660.47;;;26.04;31.19
4981;BME280;2507;50.392;7.482;2023-06-14T12:02:38;100646.84;;;26.12;31.11
4981;BME280;2507;50.392;7.482;2023-06-14T12:05:06;100657.13;;;26.02;31.06
4981;BME280;2507;50.392;7.482;2023-06-14T12:07:38;100651.94;;;25.68;31.36
4981;BME280;2507;50.392;7.482;2023-06-14T12:10:08;100656.28;;;25.56;31.83
4981;BME280;2507;50.392;7.482;2023-06-14T12:12:37;100674.69;;;25.59;31.82
4981;BME280;2507;50.392;7.482;2023-06-14T12:15:04;100666.19;;;25.49;32.43
4981;BME280;2507;50.392;7.482;2023-06-14T12:17:35;100668.47;;;25.52;31.89
4981;BME280;2507;50.392;7.482;2023-06-14T12:20:12;100650.94;;;25.08;33.05
4981;BME280;2507;50.392;7.482;2023-06-14T12:22:53;100655.78;;;25.33;31.97
4981;BME280;2507;50.392;7.482;2023-06-14T12:25:32;100645.91;;;25.40;31.87
4981;BME280;2507;50.392;7.482;2023-06-14T12:28:05;100643.84;;;25.42;31.80
4981;BME280;2507;50.392;7.482;2023-06-14T12:30:32;100657.94;;;25.57;31.06
4981;BME280;2507;50.392;7.482;2023-06-14T12:32:57;100656.25;;;25.49;31.31
4981;BME280;2507;50.392;7.482;2023-06-14T12:35:23;100647.41;;;25.68;31.08
4981;BME280;2507;50.392;7.482;2023-06-14T12:37:48;100665.41;;;25.61;31.30
4981;BME280;2507;50.392;7.482;2023-06-14T12:40:14;100655.06;;;25.84;31.66
4981;BME280;2507;50.392;7.482;2023-06-14T12:42:40;100654.88;;;25.99;31.32
4981;BME280;2507;50.392;7.482;2023-06-14T12:45:06;100666.25;;;26.01;30.42
4981;BME280;2507;50.392;7.482;2023-06-14T12:47:31;100667.72;;;26.10;31.39
4981;BME280;2507;50.392;7.482;2023-06-14T12:49:57;100665.41;;;25.68;32.20
4981;BME280;2507;50.392;7.482;2023-06-14T12:52:22;100667.69;;;25.71;32.66
4981;BME280;2507;50.392;7.482;2023-06-14T12:54:47;100677.84;;;25.88;30.86
4981;BME280;2507;50.392;7.482;2023-06-14T12:57:13;100677.47;;;26.04;30.83
4981;BME280;2507;50.392;7.482;2023-06-14T12:59:38;100677.84;;;25.82;30.78
4981;BME280;2507;50.392;7.482;2023-06-14T13:02:12;100681.13;;;25.77;31.61
4981;BME280;2507;50.392;7.482;2023-06-14T13:04:37;100692.31;;;26.00;30.59
4981;BME280;2507;50.392;7.482;2023-06-14T13:07:03;100681.00;;;26.18;30.58
4981;BME280;2507;50.392;7.482;2023-06-14T13:09:28;100678.69;;;26.41;30.06
4981;BME280;2507;50.392;7.482;2023-06-14T13:11:53;100671.63;;;26.53;29.99
4981;BME280;2507;50.392;7.482;2023-06-14T13:14:19;100675.97;;;26.67;29.95
4981;BME280;2507;50.392;7.482;2023-06-14T13:16:44;100668.53;;;26.56;30.50
4981;BME280;2507;50.392;7.482;2023-06-14T13:19:09;100681.16;;;26.03;31.73
4981;BME280;2507;50.392;7.482;2023-06-14T13:21:35;100691.13;;;25.29;32.63
4981;BME280;2507;50.392;7.482;2023-06-14T13:24:00;100679.22;;;24.98;34.32
4981;BME280;2507;50.392;7.482;2023-06-14T13:26:25;100686.31;;;25.18;32.58
4981;BME280;2507;50.392;7.482;2023-06-14T13:28:52;100673.97;;;25.37;32.06
4981;BME280;2507;50.392;7.482;2023-06-14T13:31:17;100689.81;;;25.86;31.40